Time;durP1;ratioP1;P1;durP2;ratioP2;P2;SDS_P1;SDS_P2;PMS_P1;PMS_P2;Temp;Humidity;BMP_temperature;BMP_pressure;BME280_temperature;BME280_humidity;BME280_pressure;Samples;Min_cycle;Max_cycle;Signal;HPM_P1;HPM_P2
2022/06/05 00:00:10;;;;;;;9.07;6.97;;;23.70;52.70;;;;;;5035479;28;20021;-72
2022/06/05 00:03:03;;;;;;;7.57;6.82;;;23.70;53.00;;;;;;5052976;28;20021;-72
2022/06/05 00:05:44;;;;;;;8.65;7.28;;;23.70;53.20;;;;;;5035494;28;20037;-72
2022/06/05 00:08:21;;;;;;;7.40;6.72;;;23.70;52.90;;;;;;5053257;28;20036;-72
2022/06/05 00:10:58;;;;;;;8.00;6.70;;;23.70;53.10;;;;;;5053249;28;20533;-72
2022/06/05 00:13:33;;;;;;;7.50;6.43;;;23.80;53.00;;;;;;5052944;28;20465;-73
2022/06/05 00:15:59;;;;;;;6.47;5.80;;;23.70;53.10;;;;;;5035142;28;20040;-72
2022/06/05 00:18:25;;;;;;;6.30;5.30;;;23.80;52.80;;;;;;5052987;28;20028;-72
2022/06/05 00:20:51;;;;;;;6.05;5.45;;;23.70;52.60;;;;;;5052828;28;20065;-72
2022/06/05 00:23:17;;;;;;;6.95;6.25;;;23.70;52.50;;;;;;5053068;28;20057;-72
2022/06/05 00:25:52;;;;;;;8.15;5.78;;;23.70;52.60;;;;;;5052792;28;20566;-72
2022/06/05 00:28:38;;;;;;;6.63;5.95;;;23.70;52.50;;;;;;5053050;28;20108;-72
2022/06/05 00:31:42;;;;;;;8.13;5.50;;;23.70;52.60;;;;;;5053133;28;20021;-72
2022/06/05 00:34:08;;;;;;;7.63;6.03;;;23.60;52.50;;;;;;5052718;28;20032;-72
2022/06/05 00:37:06;;;;;;;6.45;5.82;;;23.70;52.70;;;;;;5052609;28;20037;-72
2022/06/05 00:40:19;;;;;;;6.20;5.60;;;23.60;52.60;;;;;;5034976;28;20058;-72
2022/06/05 00:42:46;;;;;;;6.50;5.90;;;23.60;52.60;;;;;;5034900;28;20090;-72
2022/06/05 00:45:13;;;;;;;6.28;5.55;;;23.70;52.70;;;;;;5052783;28;20032;-72
2022/06/05 00:47:41;;;;;;;6.53;5.85;;;23.70;52.60;;;;;;5052870;28;20107;-72
2022/06/05 00:50:29;;;;;;;7.47;6.20;;;23.70;52.70;;;;;;5034862;28;20027;-73
2022/06/05 00:52:59;;;;;;;6.63;5.97;;;23.60;52.70;;;;;;5034962;28;20029;-72
2022/06/05 00:55:28;;;;;;;6.68;6.07;;;23.70;52.90;;;;;;5052256;28;20100;-72
2022/06/05 00:57:57;;;;;;;6.97;6.22;;;23.60;53.10;;;;;;5034619;28;20029;-73
2022/06/05 01:00:29;;;;;;;6.32;5.68;;;23.60;53.10;;;;;;5034894;28;20036;-72
2022/06/05 01:02:56;;;;;;;6.40;5.75;;;23.60;53.20;;;;;;5052376;28;20104;-72
2022/06/05 01:05:24;;;;;;;7.20;6.50;;;23.60;53.20;;;;;;5052847;28;20115;-72
2022/06/05 01:07:51;;;;;;;8.65;6.57;;;23.60;53.50;;;;;;5052755;28;20025;-72
2022/06/05 01:10:19;;;;;;;8.10;7.30;;;23.60;53.60;;;;;;5052180;28;20156;-73
2022/06/05 01:13:05;;;;;;;8.73;7.47;;;23.50;53.70;;;;;;5034582;28;20028;-72
2022/06/05 01:15:56;;;;;;;10.20;7.20;;;23.50;53.80;;;;;;5055024;28;20029;-72
2022/06/05 01:18:50;;;;;;;7.82;7.03;;;23.50;53.70;;;;;;5016018;28;20048;-72
2022/06/05 01:21:42;;;;;;;10.18;8.13;;;23.50;53.70;;;;;;5056054;28;20025;-72
2022/06/05 01:24:41;;;;;;;9.38;6.93;;;23.50;53.70;;;;;;5056051;28;20036;-72
2022/06/05 01:27:14;;;;;;;12.02;7.50;;;23.50;53.80;;;;;;5055896;28;20112;-72
2022/06/05 01:29:53;;;;;;;8.60;7.57;;;23.50;54.10;;;;;;5038110;28;20115;-72
2022/06/05 01:32:36;;;;;;;8.88;7.72;;;23.40;54.60;;;;;;5037771;28;20056;-72
2022/06/05 01:35:17;;;;;;;9.35;7.53;;;23.40;54.70;;;;;;5055523;28;20037;-72
2022/06/05 01:37:50;;;;;;;10.25;8.20;;;23.40;54.30;;;;;;5037974;28;20429;-72
2022/06/05 01:40:24;;;;;;;12.15;8.18;;;23.40;54.40;;;;;;5055551;28;20079;-72
2022/06/05 01:43:08;;;;;;;10.13;8.45;;;23.30;54.40;;;;;;5055458;28;20515;-72
2022/06/05 01:45:37;;;;;;;9.70;8.52;;;23.30;54.40;;;;;;5055733;28;20033;-72
2022/06/05 01:48:05;;;;;;;8.85;7.93;;;23.30;54.30;;;;;;5055182;28;20035;-72
2022/06/05 01:50:44;;;;;;;9.05;8.15;;;23.30;54.50;;;;;;5055556;28;20028;-72
2022/06/05 01:53:15;;;;;;;9.07;7.70;;;23.20;54.40;;;;;;5055990;28;20036;-73
2022/06/05 01:55:57;;;;;;;8.85;7.85;;;23.20;54.40;;;;;;5075427;28;20048;-72
2022/06/05 01:58:37;;;;;;;8.30;7.47;;;23.20;54.50;;;;;;5075292;28;20423;-72
2022/06/05 02:01:09;;;;;;;10.32;7.00;;;23.10;54.30;;;;;;5057256;28;20052;-72
2022/06/05 02:03:46;;;;;;;7.75;6.95;;;23.10;54.30;;;;;;5075474;28;20405;-72
2022/06/05 02:06:17;;;;;;;11.10;8.30;;;23.10;54.40;;;;;;5075353;28;20040;-72
2022/06/05 02:09:07;;;;;;;9.05;8.13;;;23.00;54.40;;;;;;5074994;28;20025;-72
2022/06/05 02:11:33;;;;;;;10.07;8.25;;;23.00;54.40;;;;;;5075226;28;20419;-72
2022/06/05 02:14:09;;;;;;;8.75;7.95;;;23.00;54.50;;;;;;5074839;28;20059;-72
2022/06/05 02:16:37;;;;;;;12.40;8.98;;;23.00;54.70;;;;;;5075084;28;20038;-72
2022/06/05 02:19:09;;;;;;;8.38;7.50;;;22.90;54.90;;;;;;5074751;28;20295;-73
2022/06/05 02:21:40;;;;;;;8.88;7.97;;;22.90;55.00;;;;;;5074982;28;20021;-72
2022/06/05 02:24:07;;;;;;;7.57;6.80;;;22.80;55.00;;;;;;5074677;28;20032;-72
2022/06/05 02:26:33;;;;;;;8.93;7.55;;;22.80;55.00;;;;;;5056499;28;20029;-72
2022/06/05 02:29:07;;;;;;;9.73;8.35;;;22.80;55.00;;;;;;5074758;28;20138;-72
2022/06/05 02:31:59;;;;;;;15.38;8.38;;;22.80;55.20;;;;;;5074853;28;20075;-72
2022/06/05 02:35:05;;;;;;;8.57;7.78;;;22.70;55.10;;;;;;5064998;28;20048;-72
2022/06/05 02:38:10;;;;;;;8.70;7.80;;;22.70;55.00;;;;;;5074678;28;20044;-72
2022/06/05 02:40:51;;;;;;;9.18;7.82;;;22.70;55.10;;;;;;5074363;28;20453;-72
2022/06/05 02:43:24;;;;;;;10.68;7.68;;;22.60;55.20;;;;;;5074568;28;20021;-72
2022/06/05 02:46:19;;;;;;;12.35;7.53;;;22.60;55.30;;;;;;5074449;28;20024;-72
2022/06/05 02:48:57;;;;;;;8.40;7.43;;;22.60;55.30;;;;;;5074437;28;20469;-72
2022/06/05 02:51:28;;;;;;;9.23;7.80;;;22.50;55.30;;;;;;5074163;28;20029;-75
2022/06/05 02:53:59;;;;;;;7.95;6.88;;;22.50;55.50;;;;;;5055951;28;20049;-73
2022/06/05 02:56:28;;;;;;;8.57;7.75;;;22.50;55.50;;;;;;5073164;28;20033;-73
2022/06/05 02:58:56;;;;;;;8.88;7.05;;;22.40;55.40;;;;;;5075593;28;20028;-73
2022/06/05 03:04:09;;;;;;;7.93;7.07;;;22.40;55.60;;;;;;5090486;28;20517;-73
2022/06/05 03:06:37;;;;;;;7.75;7.05;;;22.40;55.50;;;;;;5052548;28;20060;-73
2022/06/05 03:09:03;;;;;;;8.40;7.28;;;22.50;55.80;;;;;;5064989;28;20021;-73
2022/06/05 03:11:30;;;;;;;8.18;7.38;;;22.40;55.60;;;;;;5053755;28;20021;-72
2022/06/05 03:13:59;;;;;;;10.57;7.57;;;22.50;55.70;;;;;;5067487;28;20151;-73
2022/06/05 03:16:28;;;;;;;8.43;7.53;;;22.50;55.70;;;;;;5054457;28;20063;-72
2022/06/05 03:18:54;;;;;;;9.45;7.55;;;22.50;55.70;;;;;;5073685;28;20031;-73
2022/06/05 03:21:19;;;;;;;9.20;6.97;;;22.50;55.80;;;;;;5067896;28;20056;-73
2022/06/05 03:23:45;;;;;;;7.65;6.95;;;22.50;55.70;;;;;;5039132;28;20464;-73
2022/06/05 03:26:12;;;;;;;8.48;7.25;;;22.50;55.70;;;;;;5038624;28;20471;-73
2022/06/05 03:28:39;;;;;;;7.15;6.28;;;22.50;55.70;;;;;;5058942;28;20476;-73
2022/06/05 03:31:09;;;;;;;8.45;7.20;;;22.50;55.60;;;;;;5075466;28;20451;-73
2022/06/05 03:33:37;;;;;;;7.80;7.00;;;22.50;55.70;;;;;;5075592;28;20059;-73
2022/06/05 03:36:11;;;;;;;7.50;6.72;;;22.50;55.70;;;;;;5075312;28;20027;-73
2022/06/05 03:38:38;;;;;;;8.55;7.65;;;22.60;55.70;;;;;;5069741;28;20021;-73
2022/06/05 03:41:04;;;;;;;8.57;7.45;;;22.60;55.70;;;;;;5080667;28;20419;-73
2022/06/05 03:43:31;;;;;;;8.73;7.82;;;22.60;55.70;;;;;;5093584;28;20028;-73
2022/06/05 03:46:06;;;;;;;8.00;7.20;;;22.70;55.80;;;;;;5075359;28;20056;-73
2022/06/05 03:48:32;;;;;;;8.15;7.35;;;22.70;55.80;;;;;;5052822;28;20029;-73
2022/06/05 03:50:58;;;;;;;9.23;8.20;;;22.80;55.80;;;;;;5058135;28;20443;-73
2022/06/05 03:53:24;;;;;;;10.52;9.10;;;22.80;55.80;;;;;;5072852;28;20028;-73
2022/06/05 03:55:53;;;;;;;13.70;11.20;;;22.80;55.90;;;;;;5093247;28;20040;-73
2022/06/05 03:58:20;;;;;;;11.43;9.63;;;22.90;55.80;;;;;;5075079;28;20533;-73
2022/06/05 04:00:46;;;;;;;11.18;9.10;;;22.90;55.70;;;;;;5075128;28;20115;-73
2022/06/05 04:03:12;;;;;;;10.13;9.07;;;22.90;55.60;;;;;;5092913;28;20028;-74
2022/06/05 04:05:37;;;;;;;9.80;7.60;;;23.00;55.70;;;;;;5086678;28;20070;-73
2022/06/05 04:08:03;;;;;;;11.85;7.82;;;23.00;55.60;;;;;;5093181;28;20021;-73
2022/06/05 04:10:29;;;;;;;8.45;7.07;;;23.10;55.60;;;;;;5061199;28;20025;-73
2022/06/05 04:12:55;;;;;;;9.50;8.23;;;23.10;55.60;;;;;;5035129;28;20435;-73
2022/06/05 04:15:23;;;;;;;9.85;7.50;;;23.10;55.50;;;;;;5055609;28;20032;-73
2022/06/05 04:17:49;;;;;;;9.00;8.15;;;23.20;55.40;;;;;;5075010;28;20032;-73
2022/06/05 04:20:15;;;;;;;9.20;8.07;;;23.30;55.50;;;;;;5075053;28;20479;-73
2022/06/05 04:22:41;;;;;;;9.15;7.75;;;23.30;55.40;;;;;;5093214;28;20138;-73
2022/06/05 04:25:09;;;;;;;9.55;7.68;;;23.40;55.40;;;;;;5075031;28;20035;-73
2022/06/05 04:27:35;;;;;;;8.80;8.00;;;23.50;55.40;;;;;;5074476;28;20065;-73
2022/06/05 04:30:01;;;;;;;8.82;7.93;;;23.50;55.20;;;;;;5089528;28;20036;-74
2022/06/05 04:32:27;;;;;;;10.90;9.18;;;23.60;55.10;;;;;;5074705;28;20483;-73
2022/06/05 04:34:53;;;;;;;9.23;8.00;;;23.70;54.90;;;;;;5092729;28;20025;-73
2022/06/05 04:37:19;;;;;;;9.77;8.77;;;23.80;54.60;;;;;;5073489;28;20384;-73
2022/06/05 04:39:45;;;;;;;9.40;8.00;;;23.80;54.40;;;;;;5089045;28;20033;-73
2022/06/05 04:42:10;;;;;;;8.88;7.95;;;23.90;54.30;;;;;;5074551;28;20066;-73
2022/06/05 04:44:37;;;;;;;12.40;8.25;;;24.00;54.30;;;;;;5056757;28;20028;-73
2022/06/05 04:47:03;;;;;;;9.90;8.90;;;24.00;54.10;;;;;;5055013;28;20043;-73
2022/06/05 04:49:29;;;;;;;10.88;8.18;;;24.00;53.90;;;;;;5089209;28;20031;-73
2022/06/05 04:51:55;;;;;;;9.60;7.78;;;24.10;53.80;;;;;;5078671;28;20453;-73
2022/06/05 04:54:21;;;;;;;9.23;8.27;;;24.10;53.70;;;;;;5070427;28;20052;-73
2022/06/05 04:56:47;;;;;;;11.55;8.02;;;24.10;53.70;;;;;;5076350;28;20484;-73
2022/06/05 04:59:13;;;;;;;9.88;8.85;;;24.10;53.60;;;;;;5076422;28;20033;-73
2022/06/05 05:01:39;;;;;;;11.05;8.45;;;24.10;53.50;;;;;;5067064;28;20043;-73
2022/06/05 05:04:08;;;;;;;9.18;8.27;;;24.20;53.40;;;;;;5078507;28;20069;-73
2022/06/05 05:06:35;;;;;;;8.60;7.75;;;24.30;53.40;;;;;;5096140;28;20035;-73
2022/06/05 05:09:01;;;;;;;9.90;8.23;;;24.20;53.30;;;;;;5071993;28;20471;-73
2022/06/05 05:11:28;;;;;;;12.48;8.85;;;24.30;53.40;;;;;;5096228;28;20229;-73
2022/06/05 05:13:55;;;;;;;10.27;8.60;;;24.30;53.40;;;;;;5078306;28;20020;-73
2022/06/05 05:16:21;;;;;;;9.82;8.13;;;24.40;53.40;;;;;;5096347;28;20488;-73
2022/06/05 05:18:47;;;;;;;9.80;8.57;;;24.40;53.30;;;;;;5094759;28;20073;-73
2022/06/05 05:21:15;;;;;;;11.27;8.35;;;24.40;53.30;;;;;;5077975;28;20036;-73
2022/06/05 05:23:43;;;;;;;9.77;7.65;;;24.50;53.30;;;;;;5096042;28;20031;-73
2022/06/05 05:26:10;;;;;;;9.25;7.80;;;24.50;53.20;;;;;;5094380;28;20032;-74
2022/06/05 05:28:36;;;;;;;8.27;7.18;;;24.60;53.30;;;;;;5077957;28;20028;-73
2022/06/05 05:31:07;;;;;;;8.93;7.57;;;24.60;53.20;;;;;;5093823;28;20383;-73
2022/06/05 05:33:34;;;;;;;8.57;7.68;;;24.70;53.00;;;;;;5077973;28;20031;-73
2022/06/05 05:35:59;;;;;;;8.48;7.57;;;24.70;52.80;;;;;;5095917;28;20032;-73
2022/06/05 05:38:25;;;;;;;12.82;8.45;;;24.80;52.70;;;;;;5077747;28;20467;-73
2022/06/05 05:43:35;;;;;;;8.40;7.60;;;24.80;52.40;;;;;;5055407;28;20032;-73
2022/06/05 05:46:01;;;;;;;8.82;7.55;;;24.90;52.30;;;;;;5037950;28;20037;-74
2022/06/05 05:48:30;;;;;;;8.85;7.82;;;24.80;52.10;;;;;;5054664;28;20111;-74
2022/06/05 05:50:55;;;;;;;9.10;8.13;;;24.80;52.20;;;;;;5077540;28;20036;-74
2022/06/05 05:53:21;;;;;;;8.02;7.28;;;24.90;52.20;;;;;;5072809;28;20028;-73
2022/06/05 05:55:47;;;;;;;9.02;8.07;;;24.90;52.20;;;;;;5095560;28;20040;-73
2022/06/05 05:58:13;;;;;;;10.13;8.25;;;24.90;52.20;;;;;;5077413;28;20120;-73
2022/06/05 06:00:38;;;;;;;10.15;7.32;;;24.90;52.20;;;;;;5093889;28;20111;-73
2022/06/05 06:03:04;;;;;;;7.93;6.85;;;24.90;52.20;;;;;;5077349;28;20020;-73
2022/06/05 06:05:31;;;;;;;8.20;7.40;;;25.00;52.20;;;;;;5073381;28;20532;-73
2022/06/05 06:07:57;;;;;;;8.80;7.68;;;25.00;52.00;;;;;;5077026;28;20032;-73
2022/06/05 06:10:25;;;;;;;10.00;7.05;;;25.00;52.00;;;;;;5095139;28;20020;-73
2022/06/05 06:12:51;;;;;;;8.20;7.40;;;25.00;52.00;;;;;;5095664;28;20034;-72
2022/06/05 06:15:17;;;;;;;9.48;6.82;;;25.10;52.00;;;;;;5077049;28;20468;-73
2022/06/05 06:17:43;;;;;;;8.95;6.80;;;25.10;51.50;;;;;;5074682;28;20445;-73
2022/06/05 06:20:12;;;;;;;8.93;6.10;;;25.10;52.30;;;;;;5093947;28;20032;-73
2022/06/05 06:22:41;;;;;;;6.90;6.20;;;25.10;51.90;;;;;;5077047;28;20425;-73
2022/06/05 06:25:07;;;;;;;7.18;6.32;;;25.20;52.00;;;;;;5095175;28;20055;-73
2022/06/05 06:27:33;;;;;;;6.25;5.65;;;25.20;51.70;;;;;;5067361;28;20473;-73
2022/06/05 06:29:59;;;;;;;6.80;5.93;;;25.30;51.90;;;;;;5054643;28;20035;-73
2022/06/05 06:32:25;;;;;;;8.02;5.75;;;25.30;51.90;;;;;;5054832;28;20056;-73
2022/06/05 06:34:51;;;;;;;7.57;6.00;;;25.30;51.70;;;;;;5036458;28;20036;-73
2022/06/05 06:37:17;;;;;;;7.20;6.00;;;25.40;51.60;;;;;;5054728;28;20033;-73
2022/06/05 06:39:43;;;;;;;7.07;6.20;;;25.50;51.60;;;;;;5070878;28;20034;-73
2022/06/05 06:42:08;;;;;;;6.80;6.05;;;25.50;51.40;;;;;;5074551;28;20040;-73
2022/06/05 06:44:34;;;;;;;6.10;5.50;;;25.50;51.20;;;;;;5074757;28;20021;-73
2022/06/05 06:47:00;;;;;;;6.50;5.80;;;25.60;51.20;;;;;;5074642;28;20449;-73
2022/06/05 06:49:26;;;;;;;8.38;6.20;;;25.70;51.40;;;;;;5092507;28;20028;-73
2022/06/05 06:51:51;;;;;;;8.80;6.10;;;25.70;51.40;;;;;;5074138;28;20024;-73
2022/06/05 06:54:17;;;;;;;8.52;6.07;;;25.80;51.50;;;;;;5066773;28;20087;-73
2022/06/05 06:56:44;;;;;;;5.82;5.22;;;25.80;51.40;;;;;;5068949;28;20039;-73
2022/06/05 06:59:09;;;;;;;6.53;5.85;;;25.90;51.20;;;;;;5076024;28;20392;-73
2022/06/05 07:01:35;;;;;;;7.05;5.80;;;25.90;50.90;;;;;;5076106;28;20024;-73
2022/06/05 07:04:04;;;;;;;7.85;6.07;;;26.00;50.90;;;;;;5088503;28;20025;-74
2022/06/05 07:06:30;;;;;;;5.82;5.25;;;26.10;50.70;;;;;;5093693;28;20097;-74
2022/06/05 07:08:56;;;;;;;6.97;6.22;;;26.10;50.70;;;;;;5093087;28;20475;-73
2022/06/05 07:11:22;;;;;;;10.38;7.22;;;26.20;50.80;;;;;;5093605;28;20028;-73
2022/06/05 07:13:51;;;;;;;6.90;6.20;;;26.20;50.40;;;;;;5075397;28;20043;-73
2022/06/05 07:16:18;;;;;;;7.88;6.75;;;26.20;50.50;;;;;;5071231;28;20454;-74
2022/06/05 07:18:43;;;;;;;12.85;6.60;;;26.30;50.70;;;;;;5075811;28;20364;-74
2022/06/05 07:21:12;;;;;;;6.15;5.28;;;26.40;50.70;;;;;;5094048;28;20047;-73
2022/06/05 07:23:38;;;;;;;13.05;6.80;;;26.40;50.60;;;;;;5094047;28;20025;-73
2022/06/05 07:26:08;;;;;;;7.82;6.75;;;26.50;50.50;;;;;;5093820;28;20040;-73
2022/06/05 07:28:34;;;;;;;7.78;6.15;;;26.40;50.20;;;;;;5071624;28;20503;-74
2022/06/05 07:31:04;;;;;;;6.32;5.55;;;26.50;50.30;;;;;;5093454;28;20028;-74
2022/06/05 07:33:30;;;;;;;6.50;5.18;;;26.50;50.20;;;;;;5093774;28;20154;-74
2022/06/05 07:35:58;;;;;;;6.70;5.30;;;26.50;50.40;;;;;;5075390;28;20542;-73
2022/06/05 07:38:24;;;;;;;5.88;5.18;;;26.60;50.40;;;;;;5074187;28;20360;-74
2022/06/05 07:40:50;;;;;;;5.82;5.22;;;26.60;50.20;;;;;;5066313;28;20024;-73
2022/06/05 07:43:16;;;;;;;6.35;5.13;;;26.70;50.20;;;;;;5075382;28;20460;-73
2022/06/05 07:45:45;;;;;;;8.55;7.20;;;26.70;50.00;;;;;;5093729;28;20472;-74
2022/06/05 07:48:11;;;;;;;7.43;6.15;;;26.70;49.60;;;;;;5092483;28;20472;-73
2022/06/05 07:54:26;;;;;;;6.97;5.75;;;26.70;49.70;;;;;;5093559;28;20031;-73
2022/06/05 07:56:06;;;;;;;;;;;26.80;49.60;;;;;;5077368;28;20055;-73
2022/06/05 07:58:32;;;;;;;5.30;4.80;;;26.90;50.00;;;;;;5093486;28;19933;-74
2022/06/05 08:00:58;;;;;;;5.30;4.80;;;27.00;49.60;;;;;;5093212;28;20024;-73
2022/06/05 08:03:24;;;;;;;7.90;5.13;;;27.00;49.50;;;;;;5074695;28;20020;-74
2022/06/05 08:05:49;;;;;;;7.40;5.25;;;27.10;49.40;;;;;;5088427;28;20433;-73
2022/06/05 08:08:15;;;;;;;6.38;5.20;;;27.10;49.30;;;;;;5092505;28;20077;-74
2022/06/05 08:10:41;;;;;;;6.82;5.28;;;27.20;49.40;;;;;;5093376;28;20636;-74
2022/06/05 08:13:08;;;;;;;5.95;5.15;;;27.30;49.10;;;;;;5075121;28;20077;-74
2022/06/05 08:15:34;;;;;;;7.03;6.20;;;27.30;49.10;;;;;;5093258;28;20020;-72
2022/06/05 08:18:00;;;;;;;6.43;5.75;;;27.40;48.70;;;;;;5088020;28;20036;-72
2022/06/05 08:20:25;;;;;;;5.05;4.63;;;27.40;48.40;;;;;;5075052;28;20024;-72
2022/06/05 08:22:51;;;;;;;9.50;5.25;;;27.50;48.60;;;;;;5093202;28;20104;-73
2022/06/05 08:25:19;;;;;;;12.70;5.60;;;27.60;48.70;;;;;;5079187;28;20032;-72
2022/06/05 08:27:46;;;;;;;8.27;5.82;;;27.60;48.40;;;;;;5079201;28;20392;-72
2022/06/05 08:30:14;;;;;;;5.82;5.22;;;27.70;48.30;;;;;;5092380;28;20051;-72
2022/06/05 08:32:39;;;;;;;5.95;5.45;;;27.70;48.20;;;;;;5078675;28;20111;-72
2022/06/05 08:35:07;;;;;;;6.97;5.25;;;27.80;47.80;;;;;;5079045;28;20111;-71
2022/06/05 08:44:02;;;;;;;9.20;5.32;;;27.90;47.40;;;;;;5024714;28;20041;-72
2022/06/05 08:46:44;;;;;;;5.50;4.70;;;28.00;47.70;;;;;;4986873;28;20133;-72
2022/06/05 08:49:21;;;;;;;7.82;5.55;;;28.10;47.30;;;;;;5076762;28;20048;-73
2022/06/05 08:52:05;;;;;;;8.80;5.45;;;28.20;47.20;;;;;;5058718;28;20531;-72
2022/06/05 08:54:46;;;;;;;6.25;5.28;;;28.20;46.90;;;;;;5078408;28;20063;-72
2022/06/05 08:57:21;;;;;;;5.97;5.38;;;28.40;46.90;;;;;;5096779;28;20036;-72
2022/06/05 08:59:58;;;;;;;9.45;5.47;;;28.40;46.70;;;;;;5078566;28;20379;-72
2022/06/05 09:02:50;;;;;;;7.05;5.30;;;28.60;46.20;;;;;;5078530;28;20038;-72
2022/06/05 09:05:22;;;;;;;8.02;5.78;;;28.70;46.60;;;;;;5096416;28;20024;-72
2022/06/05 09:07:54;;;;;;;5.78;5.18;;;28.80;45.80;;;;;;5091560;28;20380;-73
2022/06/05 09:10:42;;;;;;;7.53;5.15;;;29.00;45.90;;;;;;5096359;28;20138;-73
2022/06/05 09:13:29;;;;;;;6.47;5.03;;;29.20;45.80;;;;;;5096482;28;20020;-72
2022/06/05 09:15:57;;;;;;;6.88;5.60;;;29.40;45.40;;;;;;5096320;28;20367;-72
2022/06/05 09:18:25;;;;;;;5.68;4.93;;;29.50;44.00;;;;;;5096346;28;20161;-72
2022/06/05 09:20:55;;;;;;;5.88;5.28;;;29.70;43.50;;;;;;5091907;28;20028;-72
2022/06/05 09:23:44;;;;;;;4.57;4.18;;;29.80;43.20;;;;;;5078002;28;20519;-72
2022/06/05 09:26:34;;;;;;;5.45;4.55;;;30.00;43.90;;;;;;5096101;28;20053;-72
2022/06/05 09:29:19;;;;;;;6.05;5.07;;;30.10;43.40;;;;;;5077937;28;20353;-72
2022/06/05 09:31:54;;;;;;;6.07;5.30;;;30.20;43.00;;;;;;5076438;28;20055;-72
2022/06/05 09:34:32;;;;;;;9.82;4.57;;;30.40;42.30;;;;;;5076314;28;20111;-72
2022/06/05 09:37:08;;;;;;;4.28;3.88;;;30.40;41.40;;;;;;5064524;28;20025;-72
2022/06/05 09:39:45;;;;;;;5.18;4.03;;;30.40;41.10;;;;;;5075675;28;20024;-72
2022/06/05 09:42:50;;;;;;;5.88;4.20;;;30.50;41.10;;;;;;5086109;28;20032;-72
2022/06/05 09:45:53;;;;;;;4.65;3.88;;;30.50;41.00;;;;;;5095403;28;20097;-72
2022/06/05 09:48:48;;;;;;;5.38;3.72;;;30.50;41.00;;;;;;5077704;28;20429;-72
2022/06/05 09:51:17;;;;;;;3.45;3.15;;;30.50;41.00;;;;;;5093567;28;20024;-71
2022/06/05 09:53:54;;;;;;;4.75;4.03;;;30.50;40.30;;;;;;5077142;28;20092;-72
2022/06/05 09:58:24;;;;;;;8.18;3.80;;;30.50;40.00;;;;;;5074485;28;20047;-73
2022/06/05 09:59:26;;;;;;;5.07;3.60;;;30.50;40.20;;;;;;5074879;28;20082;-73
2022/06/05 10:01:59;;;;;;;6.38;4.03;;;30.60;40.20;;;;;;5075306;28;20025;-73
2022/06/05 10:04:30;;;;;;;4.43;4.03;;;30.60;40.00;;;;;;5065406;28;20054;-73
2022/06/05 10:07:06;;;;;;;4.32;3.92;;;30.70;39.80;;;;;;5077260;28;20376;-72
2022/06/05 10:09:38;;;;;;;5.40;4.65;;;30.70;39.90;;;;;;5077224;28;20073;-72
2022/06/05 10:12:35;;;;;;;5.70;4.18;;;30.70;39.90;;;;;;5095371;28;20021;-73
2022/06/05 10:15:19;;;;;;;8.00;4.60;;;30.70;39.30;;;;;;5075526;28;20051;-73
2022/06/05 10:17:56;;;;;;;14.32;4.50;;;30.60;38.40;;;;;;5095304;28;20054;-72
2022/06/05 10:20:36;;;;;;;5.57;4.22;;;30.50;38.60;;;;;;5077041;28;20538;-73
2022/06/05 10:23:19;;;;;;;5.20;3.75;;;30.40;39.00;;;;;;5075010;28;20028;-72
2022/06/05 10:26:13;;;;;;;4.43;3.92;;;30.40;39.40;;;;;;5078203;28;20125;-72
2022/06/05 10:28:41;;;;;;;6.65;4.30;;;30.40;39.60;;;;;;5076938;28;20074;-73
2022/06/05 10:31:22;;;;;;;5.25;4.22;;;30.40;39.50;;;;;;5076812;28;20056;-72
2022/06/05 10:34:02;;;;;;;9.30;4.03;;;30.40;39.30;;;;;;5076783;28;20589;-72
2022/06/05 10:36:46;;;;;;;6.22;3.95;;;30.40;39.60;;;;;;5054200;28;20449;-72
2022/06/05 10:39:25;;;;;;;4.00;3.60;;;30.40;39.30;;;;;;5089694;28;20089;-72
2022/06/05 10:41:56;;;;;;;6.20;4.50;;;30.40;39.00;;;;;;5094761;28;20051;-73
2022/06/05 10:44:35;;;;;;;5.03;4.10;;;30.30;38.80;;;;;;5093011;28;20380;-72
2022/06/05 10:47:05;;;;;;;5.72;3.80;;;30.40;39.00;;;;;;5094472;28;20049;-73
2022/06/05 10:49:41;;;;;;;4.38;3.97;;;30.50;39.60;;;;;;5094606;28;20035;-73
2022/06/05 10:52:26;;;;;;;4.53;3.65;;;30.60;38.50;;;;;;5076471;28;20114;-72
2022/06/05 10:54:59;;;;;;;3.83;3.22;;;30.60;38.50;;;;;;5091460;28;20059;-72
2022/06/05 10:57:39;;;;;;;3.45;3.15;;;30.80;38.60;;;;;;5094659;28;20043;-73
2022/06/05 11:00:20;;;;;;;3.47;3.17;;;31.00;38.60;;;;;;5094067;28;20081;-73
2022/06/05 11:03:15;;;;;;;4.90;3.20;;;31.20;38.30;;;;;;5076160;28;20497;-73
2022/06/05 11:06:00;;;;;;;3.90;3.50;;;31.60;38.60;;;;;;5074952;28;20028;-73
2022/06/05 11:08:37;;;;;;;5.95;2.92;;;31.70;37.40;;;;;;5056058;28;20021;-72
2022/06/05 11:14:15;;;;;;;;;;;32.10;36.40;;;;;;5085363;28;20093;-73
2022/06/05 11:16:54;;;;;;;;;;;32.30;37.80;;;;;;5091880;28;20264;-73
2022/06/05 11:19:23;;;;;;;4.38;3.28;;;32.40;37.50;;;;;;5075912;28;19915;-73
2022/06/05 11:21:51;;;;;;;4.70;2.88;;;32.50;35.00;;;;;;5073568;28;20100;-73
2022/06/05 11:24:33;;;;;;;3.45;2.90;;;32.40;34.70;;;;;;5049024;28;20024;-73
2022/06/05 11:27:11;;;;;;;4.63;2.72;;;32.40;34.80;;;;;;5093678;28;20539;-73
2022/06/05 11:29:46;;;;;;;3.70;2.72;;;32.30;34.60;;;;;;5077899;28;20063;-73
2022/06/05 11:32:28;;;;;;;7.97;2.88;;;32.30;34.60;;;;;;5054949;28;20029;-73
2022/06/05 11:35:12;;;;;;;11.82;2.97;;;32.30;34.90;;;;;;5073259;28;20112;-72
2022/06/05 11:38:00;;;;;;;3.35;2.75;;;32.20;34.20;;;;;;5047153;28;20032;-72
2022/06/05 11:40:54;;;;;;;4.80;2.58;;;32.10;34.70;;;;;;5077578;28;20016;-73
2022/06/05 11:43:39;;;;;;;3.50;2.50;;;32.10;34.10;;;;;;5075563;28;20097;-72
2022/06/05 11:46:18;;;;;;;3.70;2.83;;;32.00;34.80;;;;;;5075063;28;20036;-72
2022/06/05 11:49:12;;;;;;;5.30;2.72;;;32.00;34.30;;;;;;5090944;28;20028;-72
2022/06/05 11:51:55;;;;;;;5.75;2.80;;;32.00;34.60;;;;;;5073487;28;20028;-72
2022/06/05 11:54:30;;;;;;;;;;;32.00;33.30;;;;;;5052737;28;20445;-72
2022/06/05 11:57:34;;;;;;;2.35;2.15;;;32.10;35.20;;;;;;5053312;28;19916;-73
2022/06/05 12:00:25;;;;;;;3.15;2.65;;;32.10;34.80;;;;;;5031778;28;20045;-72
2022/06/05 12:03:15;;;;;;;3.67;2.10;;;32.10;34.30;;;;;;5053233;28;20036;-72
2022/06/05 12:06:01;;;;;;;3.83;2.63;;;32.20;34.70;;;;;;5052893;28;20143;-72
2022/06/05 12:08:36;;;;;;;5.57;2.25;;;32.20;34.10;;;;;;5053579;28;20024;-72
2022/06/05 12:11:14;;;;;;;5.10;2.95;;;32.20;33.70;;;;;;5051823;28;20036;-71
2022/06/05 12:13:43;;;;;;;4.90;2.83;;;32.30;34.20;;;;;;5073497;28;20349;-72
2022/06/05 12:16:33;;;;;;;6.93;2.83;;;32.30;34.00;;;;;;5054727;28;20025;-72
2022/06/05 12:19:14;;;;;;;5.28;2.60;;;32.40;34.40;;;;;;5053159;28;20040;-72
2022/06/05 12:22:22;;;;;;;3.80;2.40;;;32.40;34.00;;;;;;5053080;28;20052;-72
2022/06/05 12:24:47;;;;;;;3.80;3.03;;;32.50;34.10;;;;;;5047334;28;20040;-72
2022/06/05 12:27:16;;;;;;;2.83;2.50;;;32.60;33.30;;;;;;5055450;28;20030;-72
2022/06/05 12:29:44;;;;;;;6.75;3.03;;;32.70;33.70;;;;;;5055119;28;20024;-72
2022/06/05 12:32:49;;;;;;;7.93;3.35;;;32.80;33.00;;;;;;5072780;28;20025;-72
2022/06/05 12:35:25;;;;;;;5.32;2.60;;;32.80;33.40;;;;;;5070998;28;20039;-69
2022/06/05 12:38:05;;;;;;;7.40;2.55;;;32.90;33.30;;;;;;5055103;28;20033;-72
2022/06/05 12:40:36;;;;;;;4.65;2.58;;;32.90;32.80;;;;;;5072641;28;20028;-72
2022/06/05 12:43:27;;;;;;;3.55;2.50;;;32.90;31.80;;;;;;5072600;28;20032;-73
2022/06/05 12:46:01;;;;;;;3.50;2.17;;;33.00;31.90;;;;;;5042773;28;20124;-72
2022/06/05 12:48:30;;;;;;;2.90;2.30;;;33.00;30.80;;;;;;5052435;28;20096;-72
2022/06/05 12:51:06;;;;;;;3.35;2.25;;;33.10;30.90;;;;;;5066852;28;20020;-72
2022/06/05 12:54:04;;;;;;;5.13;2.35;;;33.00;30.40;;;;;;5080818;28;20041;-72
2022/06/05 12:56:38;;;;;;;2.97;2.28;;;33.00;31.70;;;;;;5035985;28;20436;-72
2022/06/05 12:59:34;;;;;;;8.68;3.85;;;33.10;30.50;;;;;;5015301;28;20036;-73
2022/06/05 13:02:25;;;;;;;5.88;3.17;;;33.10;31.00;;;;;;5033445;28;20346;-72
2022/06/05 13:05:05;;;;;;;7.70;3.40;;;33.10;30.30;;;;;;5014924;28;20461;-72
2022/06/05 13:07:38;;;;;;;4.10;2.60;;;33.20;31.00;;;;;;5032440;28;20036;-73
2022/06/05 13:10:40;;;;;;;6.00;2.90;;;33.30;30.80;;;;;;5035288;28;20057;-72
2022/06/05 13:13:24;;;;;;;9.50;3.60;;;33.30;31.00;;;;;;5037770;28;20035;-72
2022/06/05 13:15:58;;;;;;;7.18;3.28;;;33.40;30.90;;;;;;5029164;28;20215;-72
2022/06/05 13:18:39;;;;;;;5.25;4.07;;;33.50;30.80;;;;;;5038023;28;20083;-73
2022/06/05 13:21:14;;;;;;;4.97;3.08;;;33.60;31.30;;;;;;5030462;28;20029;-73
2022/06/05 13:24:12;;;;;;;7.55;2.88;;;33.80;30.40;;;;;;5045941;28;20053;-73
2022/06/05 13:26:49;;;;;;;3.53;2.30;;;34.00;30.40;;;;;;5051167;28;20033;-72
2022/06/05 13:29:42;;;;;;;3.45;2.45;;;34.30;30.10;;;;;;5036073;28;20060;-72
2022/06/05 13:32:42;;;;;;;2.85;2.55;;;34.70;29.30;;;;;;5047929;28;20549;-72
2022/06/05 13:35:20;;;;;;;5.95;2.80;;;35.00;28.70;;;;;;5054031;28;20099;-72
2022/06/05 13:38:27;;;;;;;5.70;3.03;;;35.30;28.40;;;;;;5029033;28;20029;-72